Time;durP1;ratioP1;P1;durP2;ratioP2;P2;SDS_P1;SDS_P2;PMS_P1;PMS_P2;Temp;Humidity;BMP_temperature;BMP_pressure;BME280_temperature;BME280_humidity;BME280_pressure;Samples;Min_cycle;Max_cycle;Signal;HPM_P1;HPM_P2
2023/12/23 00:01:37;;;;;;;13.93;1.17;;;;;;;;;;5055775;28;20419;-78
2023/12/23 00:04:04;;;;;;;4.37;0.80;;;;;;;;;;5055314;28;20822;-79
2023/12/23 00:06:30;;;;;;;4.20;0.30;;;;;;;;;;5055409;28;20444;-79
2023/12/23 00:08:56;;;;;;;3.60;0.70;;;;;;;;;;5037320;28;20494;-80
2023/12/23 00:11:25;;;;;;;4.77;0.83;;;;;;;;;;5034707;28;21046;-79
2023/12/23 00:13:50;;;;;;;9.10;0.60;;;;;;;;;;5049832;28;20417;-78
2023/12/23 00:16:16;;;;;;;5.00;0.57;;;;;;;;;;5033993;28;20427;-79
2023/12/23 00:18:42;;;;;;;7.67;1.53;;;;;;;;;;5034957;28;20424;-78
2023/12/23 00:21:10;;;;;;;4.40;1.10;;;;;;;;;;5036055;28;20405;-78
2023/12/23 00:23:35;;;;;;;8.90;1.47;;;;;;;;;;5049599;28;20917;-78
2023/12/23 00:26:01;;;;;;;3.87;0.83;;;;;;;;;;5034576;28;20424;-80
2023/12/23 00:28:27;;;;;;;6.80;0.50;;;;;;;;;;5049807;28;20457;-80
2023/12/23 00:30:53;;;;;;;7.63;0.97;;;;;;;;;;5050109;28;20409;-79
2023/12/23 00:33:19;;;;;;;6.37;0.67;;;;;;;;;;5034269;28;20415;-79
2023/12/23 00:35:45;;;;;;;9.30;1.00;;;;;;;;;;5034749;28;20414;-79
2023/12/23 00:38:11;;;;;;;5.80;0.53;;;;;;;;;;5034556;28;20432;-80
2023/12/23 00:40:40;;;;;;;6.00;0.60;;;;;;;;;;5034488;28;20429;-79
2023/12/23 00:43:06;;;;;;;9.67;2.10;;;;;;;;;;5034313;28;20415;-80
2023/12/23 00:45:32;;;;;;;7.03;0.50;;;;;;;;;;5034195;28;20421;-80
2023/12/23 00:47:58;;;;;;;12.17;1.33;;;;;;;;;;5035004;28;20402;-80
2023/12/23 00:50:23;;;;;;;7.77;0.60;;;;;;;;;;5034884;28;21043;-80
2023/12/23 00:52:49;;;;;;;3.23;0.67;;;;;;;;;;5039639;28;20508;-80
2023/12/23 00:55:15;;;;;;;4.97;0.63;;;;;;;;;;5054328;28;20427;-80
2023/12/23 00:57:41;;;;;;;8.10;1.20;;;;;;;;;;5054701;28;20496;-81
2023/12/23 01:00:07;;;;;;;5.50;0.93;;;;;;;;;;5054202;28;20411;-80
2023/12/23 01:02:33;;;;;;;7.80;0.73;;;;;;;;;;5053338;28;20505;-80
2023/12/23 01:04:59;;;;;;;10.23;1.90;;;;;;;;;;5054336;28;20578;-80
2023/12/23 01:07:25;;;;;;;7.30;1.37;;;;;;;;;;5054462;28;20416;-79
2023/12/23 01:09:51;;;;;;;4.63;0.87;;;;;;;;;;5054409;28;20467;-80
2023/12/23 01:12:23;;;;;;;4.23;0.67;;;;;;;;;;5069887;28;20424;-78
2023/12/23 01:14:49;;;;;;;3.17;1.00;;;;;;;;;;5069260;28;20424;-82
2023/12/23 01:17:15;;;;;;;3.40;0.50;;;;;;;;;;5069746;28;20461;-79
2023/12/23 01:19:41;;;;;;;4.87;0.70;;;;;;;;;;5054286;28;20945;-80
2023/12/23 01:22:06;;;;;;;4.97;0.40;;;;;;;;;;5054282;28;20407;-80
2023/12/23 01:24:32;;;;;;;5.60;0.87;;;;;;;;;;5053977;28;20520;-81
2023/12/23 01:26:58;;;;;;;6.40;0.87;;;;;;;;;;5053807;28;20919;-80
2023/12/23 01:29:24;;;;;;;6.67;1.47;;;;;;;;;;5053422;28;20471;-81
2023/12/23 01:31:50;;;;;;;6.30;0.57;;;;;;;;;;5069206;28;20499;-81
2023/12/23 01:34:16;;;;;;;4.87;1.10;;;;;;;;;;5053653;28;20460;-80
2023/12/23 01:36:42;;;;;;;14.83;0.90;;;;;;;;;;5053281;28;20420;-80
2023/12/23 01:39:08;;;;;;;6.87;1.60;;;;;;;;;;5053974;28;20423;-81
2023/12/23 01:41:36;;;;;;;11.90;1.40;;;;;;;;;;5053816;28;20412;-81
2023/12/23 01:44:02;;;;;;;8.70;1.13;;;;;;;;;;5053395;28;20418;-80
2023/12/23 01:46:28;;;;;;;5.13;0.70;;;;;;;;;;5053603;28;20909;-80
2023/12/23 01:48:56;;;;;;;8.57;0.90;;;;;;;;;;5053635;28;20470;-80
2023/12/23 01:51:22;;;;;;;4.00;1.03;;;;;;;;;;4994374;28;20435;-80
2023/12/23 01:53:48;;;;;;;9.60;0.60;;;;;;;;;;5033773;28;20472;-81
2023/12/23 01:56:14;;;;;;;12.40;1.57;;;;;;;;;;5033443;28;20771;-80
2023/12/23 01:58:40;;;;;;;5.10;0.70;;;;;;;;;;5033320;28;20422;-81
2023/12/23 02:01:06;;;;;;;6.40;2.10;;;;;;;;;;5033717;28;20413;-80
2023/12/23 02:03:33;;;;;;;10.90;0.80;;;;;;;;;;5033536;28;20497;-81
2023/12/23 02:05:59;;;;;;;4.33;0.90;;;;;;;;;;5033346;28;20410;-81
2023/12/23 02:08:25;;;;;;;7.93;1.00;;;;;;;;;;5033448;28;20931;-81
2023/12/23 02:11:00;;;;;;;5.33;1.10;;;;;;;;;;5033384;28;20415;-81
2023/12/23 02:13:28;;;;;;;3.30;0.70;;;;;;;;;;5033179;28;20801;-80
2023/12/23 02:15:54;;;;;;;8.80;1.13;;;;;;;;;;5032793;28;20899;-81
2023/12/23 02:18:20;;;;;;;12.17;1.53;;;;;;;;;;5033401;28;20413;-80
2023/12/23 02:20:47;;;;;;;6.60;0.67;;;;;;;;;;5045795;28;20427;-81
2023/12/23 02:23:13;;;;;;;5.90;1.10;;;;;;;;;;5052863;28;20413;-81
2023/12/23 02:25:39;;;;;;;6.60;1.17;;;;;;;;;;5068432;28;20417;-81
2023/12/23 02:28:10;;;;;;;12.30;1.47;;;;;;;;;;5052745;28;20420;-81
2023/12/23 02:30:39;;;;;;;7.10;1.37;;;;;;;;;;5053041;28;20432;-80
2023/12/23 02:33:05;;;;;;;7.63;0.90;;;;;;;;;;5053037;28;20447;-81
2023/12/23 02:35:31;;;;;;;7.47;1.30;;;;;;;;;;5052560;28;20467;-81
2023/12/23 02:37:57;;;;;;;3.53;0.70;;;;;;;;;;5053057;28;20415;-80
2023/12/23 02:40:23;;;;;;;7.33;0.77;;;;;;;;;;5068200;28;20433;-81
2023/12/23 02:42:49;;;;;;;3.83;0.53;;;;;;;;;;5052522;28;20831;-79
2023/12/23 02:45:15;;;;;;;4.70;0.63;;;;;;;;;;5052939;28;20460;-81
2023/12/23 02:47:41;;;;;;;11.30;1.10;;;;;;;;;;5052154;28;20521;-81
2023/12/23 02:50:07;;;;;;;11.60;1.57;;;;;;;;;;5052284;28;20479;-81
2023/12/23 02:52:33;;;;;;;5.17;0.43;;;;;;;;;;5052622;28;20455;-79
2023/12/23 02:54:59;;;;;;;8.03;0.77;;;;;;;;;;5052632;28;21051;-82
2023/12/23 02:57:24;;;;;;;7.10;1.27;;;;;;;;;;5052907;28;20414;-82
2023/12/23 02:59:50;;;;;;;4.93;0.87;;;;;;;;;;5052236;28;20421;-82
2023/12/23 03:02:16;;;;;;;7.97;0.90;;;;;;;;;;5052736;28;20900;-82
2023/12/23 03:04:42;;;;;;;8.17;1.17;;;;;;;;;;5052747;28;20477;-80
2023/12/23 03:07:08;;;;;;;11.03;1.13;;;;;;;;;;5052790;28;20427;-82
2023/12/23 03:09:35;;;;;;;6.53;0.80;;;;;;;;;;5052667;28;20468;-80
2023/12/23 03:12:01;;;;;;;6.93;1.30;;;;;;;;;;5052759;28;20401;-81
2023/12/23 03:14:27;;;;;;;7.80;0.87;;;;;;;;;;5052255;28;20423;-80
2023/12/23 03:16:52;;;;;;;7.87;1.27;;;;;;;;;;5052603;28;20419;-81
2023/12/23 03:19:18;;;;;;;5.73;0.80;;;;;;;;;;5052604;28;20412;-80
2023/12/23 03:21:45;;;;;;;5.30;0.80;;;;;;;;;;5052662;28;20914;-81
2023/12/23 03:24:11;;;;;;;10.07;0.83;;;;;;;;;;5052630;28;20409;-81
2023/12/23 03:26:37;;;;;;;7.53;1.53;;;;;;;;;;5052187;28;20444;-81
2023/12/23 03:29:05;;;;;;;8.13;0.73;;;;;;;;;;5028926;28;20457;-81
2023/12/23 03:31:30;;;;;;;10.23;1.30;;;;;;;;;;5047399;28;20462;-80
2023/12/23 03:33:57;;;;;;;9.30;0.70;;;;;;;;;;5031884;28;20511;-80
2023/12/23 03:36:23;;;;;;;7.00;1.80;;;;;;;;;;5031990;28;20425;-80
2023/12/23 03:38:49;;;;;;;8.40;0.73;;;;;;;;;;5047556;28;20507;-80
2023/12/23 03:41:15;;;;;;;11.10;1.20;;;;;;;;;;5031350;28;20976;-79
2023/12/23 03:43:41;;;;;;;9.53;1.13;;;;;;;;;;5030157;28;20418;-81
2023/12/23 03:46:07;;;;;;;6.33;0.60;;;;;;;;;;5032464;28;20413;-81
2023/12/23 03:48:32;;;;;;;7.57;0.70;;;;;;;;;;5031427;28;20411;-82
2023/12/23 03:50:58;;;;;;;7.37;1.43;;;;;;;;;;5032297;28;20413;-82
2023/12/23 03:53:24;;;;;;;4.63;0.63;;;;;;;;;;5032525;28;20819;-81
2023/12/23 03:55:50;;;;;;;10.70;1.33;;;;;;;;;;5032509;28;20413;-81
2023/12/23 03:58:16;;;;;;;7.60;0.67;;;;;;;;;;5032009;28;20424;-82
2023/12/23 04:00:42;;;;;;;6.87;0.90;;;;;;;;;;5049990;28;20420;-81
2023/12/23 04:03:08;;;;;;;4.80;1.37;;;;;;;;;;5035965;28;20428;-81
2023/12/23 04:05:34;;;;;;;9.30;1.60;;;;;;;;;;5035891;28;20419;-81
2023/12/23 04:08:00;;;;;;;7.80;1.10;;;;;;;;;;5035898;28;20908;-83
2023/12/23 04:10:25;;;;;;;13.70;1.70;;;;;;;;;;5035716;28;20473;-81
2023/12/23 04:12:51;;;;;;;6.27;1.43;;;;;;;;;;5035449;28;20404;-82
2023/12/23 04:15:17;;;;;;;6.97;0.87;;;;;;;;;;5035608;28;20409;-81
2023/12/23 04:17:43;;;;;;;3.67;1.03;;;;;;;;;;5050996;28;20471;-81
2023/12/23 04:20:09;;;;;;;8.27;1.03;;;;;;;;;;5035686;28;20419;-82
2023/12/23 04:22:35;;;;;;;8.63;1.70;;;;;;;;;;5035644;28;20412;-82
2023/12/23 04:25:02;;;;;;;7.70;1.17;;;;;;;;;;5035454;28;20482;-81
2023/12/23 04:27:28;;;;;;;7.67;1.47;;;;;;;;;;5035115;28;20416;-82
2023/12/23 04:29:53;;;;;;;5.67;1.13;;;;;;;;;;5035476;28;20464;-81
2023/12/23 04:32:19;;;;;;;11.40;1.73;;;;;;;;;;5035378;28;20409;-82
2023/12/23 04:34:45;;;;;;;7.90;1.57;;;;;;;;;;5035237;28;20461;-82
2023/12/23 04:37:11;;;;;;;7.30;1.07;;;;;;;;;;5050647;28;20973;-82
2023/12/23 04:39:37;;;;;;;6.13;1.07;;;;;;;;;;5035351;28;20421;-81
2023/12/23 04:42:03;;;;;;;10.00;0.70;;;;;;;;;;5035270;28;20419;-81
2023/12/23 04:44:29;;;;;;;8.07;1.23;;;;;;;;;;5034802;28;20433;-81
2023/12/23 04:46:55;;;;;;;11.63;1.50;;;;;;;;;;5035168;28;20514;-81
2023/12/23 04:49:21;;;;;;;9.07;1.33;;;;;;;;;;5050366;28;20482;-81
2023/12/23 04:51:47;;;;;;;6.53;0.60;;;;;;;;;;5035030;28;20411;-81
2023/12/23 04:54:13;;;;;;;6.87;1.17;;;;;;;;;;5035054;28;20416;-82
2023/12/23 04:56:39;;;;;;;5.77;0.80;;;;;;;;;;5034964;28;20812;-81
2023/12/23 04:59:06;;;;;;;8.33;1.30;;;;;;;;;;5034589;28;20748;-81
2023/12/23 05:01:31;;;;;;;5.43;1.33;;;;;;;;;;5034905;28;20407;-81
2023/12/23 05:03:57;;;;;;;5.17;0.83;;;;;;;;;;5034810;28;20950;-82
2023/12/23 05:06:24;;;;;;;9.03;0.93;;;;;;;;;;5050158;28;20412;-81
2023/12/23 05:08:49;;;;;;;6.73;1.17;;;;;;;;;;5034683;28;20844;-82
2023/12/23 05:11:15;;;;;;;3.60;0.50;;;;;;;;;;5048966;28;20428;-81
2023/12/23 05:13:41;;;;;;;6.50;0.93;;;;;;;;;;5034275;28;20928;-81
2023/12/23 05:16:07;;;;;;;3.13;0.67;;;;;;;;;;5034621;28;20418;-81
2023/12/23 05:18:33;;;;;;;5.40;0.67;;;;;;;;;;5034573;28;20420;-81
2023/12/23 05:20:59;;;;;;;15.03;0.90;;;;;;;;;;5049871;28;20917;-81
2023/12/23 05:23:28;;;;;;;6.27;0.87;;;;;;;;;;5034442;28;20492;-84
2023/12/23 05:25:55;;;;;;;9.83;0.63;;;;;;;;;;5034333;28;20413;-82
2023/12/23 05:28:21;;;;;;;10.60;0.53;;;;;;;;;;5033911;28;20424;-81
2023/12/23 05:30:47;;;;;;;5.80;0.80;;;;;;;;;;5049653;28;20440;-81
2023/12/23 05:33:13;;;;;;;2.37;0.40;;;;;;;;;;5034170;28;20840;-81
2023/12/23 05:35:39;;;;;;;3.47;0.50;;;;;;;;;;5034176;28;20471;-82
2023/12/23 05:38:05;;;;;;;3.23;0.30;;;;;;;;;;5034209;28;20409;-81
2023/12/23 05:40:31;;;;;;;6.70;0.93;;;;;;;;;;5033987;28;20428;-82
2023/12/23 05:42:57;;;;;;;5.43;0.30;;;;;;;;;;5049026;28;20420;-81
2023/12/23 05:45:22;;;;;;;8.10;1.13;;;;;;;;;;5034162;28;20417;-81
2023/12/23 05:47:50;;;;;;;3.43;0.47;;;;;;;;;;5034060;28;20420;-81
2023/12/23 05:50:16;;;;;;;4.10;0.40;;;;;;;;;;5049208;28;20469;-82
2023/12/23 05:52:43;;;;;;;3.07;0.43;;;;;;;;;;4992697;28;20440;-81
2023/12/23 05:55:09;;;;;;;4.57;0.20;;;;;;;;;;5033868;28;20450;-81
2023/12/23 05:57:35;;;;;;;1.73;0.30;;;;;;;;;;5033520;28;20410;-80
2023/12/23 06:00:01;;;;;;;4.30;0.77;;;;;;;;;;5049111;28;20535;-82
2023/12/23 06:02:28;;;;;;;3.57;0.30;;;;;;;;;;5049039;28;20417;-81
2023/12/23 06:04:54;;;;;;;5.10;0.67;;;;;;;;;;5033656;28;20409;-83
2023/12/23 06:07:20;;;;;;;2.73;0.20;;;;;;;;;;5033551;28;20809;-81
2023/12/23 06:09:46;;;;;;;3.57;0.30;;;;;;;;;;5033730;28;20479;-82
2023/12/23 06:12:12;;;;;;;4.20;0.47;;;;;;;;;;5033199;28;20436;-84
2023/12/23 06:14:38;;;;;;;5.67;1.53;;;;;;;;;;5048741;28;20449;-82
2023/12/23 06:17:04;;;;;;;6.73;0.60;;;;;;;;;;5033517;28;20985;-83
2023/12/23 06:19:30;;;;;;;5.20;0.50;;;;;;;;;;5033446;28;20417;-82
2023/12/23 06:21:55;;;;;;;6.37;0.63;;;;;;;;;;5033410;28;20428;-82
2023/12/23 06:24:21;;;;;;;6.93;0.60;;;;;;;;;;5033086;28;20883;-82
2023/12/23 06:26:47;;;;;;;4.73;0.57;;;;;;;;;;5033414;28;20504;-82
2023/12/23 06:29:13;;;;;;;2.20;0.30;;;;;;;;;;5032949;28;20476;-82
2023/12/23 06:31:39;;;;;;;1.97;0.60;;;;;;;;;;5033350;28;20413;-82
2023/12/23 06:34:05;;;;;;;5.27;0.60;;;;;;;;;;5033042;28;20953;-82
2023/12/23 06:36:31;;;;;;;2.10;0.57;;;;;;;;;;5033158;28;20440;-82
2023/12/23 06:38:57;;;;;;;5.07;0.40;;;;;;;;;;5033145;28;20901;-82
2023/12/23 06:41:23;;;;;;;3.90;0.50;;;;;;;;;;5033170;28;20411;-82
2023/12/23 06:43:48;;;;;;;2.10;0.63;;;;;;;;;;5032832;28;20792;-82
2023/12/23 06:46:14;;;;;;;1.57;0.40;;;;;;;;;;5033091;28;20460;-82
2023/12/23 06:48:40;;;;;;;4.50;0.37;;;;;;;;;;5033008;28;20484;-82
2023/12/23 06:51:07;;;;;;;3.63;0.63;;;;;;;;;;5032984;28;20818;-82
2023/12/23 06:53:33;;;;;;;2.20;0.30;;;;;;;;;;5032966;28;20909;-82
2023/12/23 06:55:59;;;;;;;1.33;0.20;;;;;;;;;;5032987;28;20512;-83
2023/12/23 06:58:28;;;;;;;3.53;0.30;;;;;;;;;;5032632;28;20417;-82
2023/12/23 07:00:54;;;;;;;1.47;0.23;;;;;;;;;;5032972;28;20805;-82
2023/12/23 07:03:21;;;;;;;2.23;0.20;;;;;;;;;;5032930;28;20503;-82
2023/12/23 07:05:47;;;;;;;1.77;0.63;;;;;;;;;;5032873;28;20483;-83
2023/12/23 07:08:13;;;;;;;4.00;0.37;;;;;;;;;;5032754;28;20422;-83
2023/12/23 07:10:39;;;;;;;0.90;0.30;;;;;;;;;;5032867;28;20566;-82
2023/12/23 07:13:05;;;;;;;2.40;0.57;;;;;;;;;;5032537;28;20889;-81
2023/12/23 07:15:31;;;;;;;3.13;0.73;;;;;;;;;;5032842;28;20485;-81
2023/12/23 07:17:57;;;;;;;4.93;0.40;;;;;;;;;;5033037;28;20413;-81
2023/12/23 07:20:23;;;;;;;4.57;0.80;;;;;;;;;;5032873;28;20475;-83
2023/12/23 07:22:49;;;;;;;4.03;0.47;;;;;;;;;;5032968;28;20416;-81
2023/12/23 07:25:16;;;;;;;4.77;0.50;;;;;;;;;;5033019;28;20818;-82
2023/12/23 07:27:42;;;;;;;3.70;0.53;;;;;;;;;;5032583;28;20405;-81
2023/12/23 07:30:08;;;;;;;5.60;0.83;;;;;;;;;;5032710;28;20476;-81
2023/12/23 07:32:35;;;;;;;2.03;0.60;;;;;;;;;;5032706;28;20419;-80
2023/12/23 07:35:01;;;;;;;4.17;0.53;;;;;;;;;;5033853;28;20463;-81
2023/12/23 07:37:27;;;;;;;3.47;0.30;;;;;;;;;;5036579;28;20401;-81
2023/12/23 07:39:53;;;;;;;2.00;0.30;;;;;;;;;;5036507;28;20429;-81
2023/12/23 07:42:20;;;;;;;2.20;0.60;;;;;;;;;;5036082;28;20412;-81
2023/12/23 07:44:46;;;;;;;3.53;0.53;;;;;;;;;;5036303;28;20960;-82
2023/12/23 07:47:12;;;;;;;2.40;0.47;;;;;;;;;;5036258;28;20488;-82
2023/12/23 07:49:38;;;;;;;4.97;0.20;;;;;;;;;;5036124;28;20464;-81
2023/12/23 07:52:05;;;;;;;1.00;0.30;;;;;;;;;;5036164;28;20420;-82
2023/12/23 07:54:31;;;;;;;4.17;0.33;;;;;;;;;;5036145;28;20770;-82
2023/12/23 07:56:57;;;;;;;3.10;0.50;;;;;;;;;;5050993;28;20408;-82
2023/12/23 07:59:23;;;;;;;2.13;0.20;;;;;;;;;;5036128;28;20409;-83
2023/12/23 08:01:49;;;;;;;2.97;0.70;;;;;;;;;;5036022;28;20467;-82
2023/12/23 08:04:15;;;;;;;3.83;0.57;;;;;;;;;;5035840;28;20414;-83
2023/12/23 08:06:41;;;;;;;0.90;0.30;;;;;;;;;;5035906;28;20783;-83
2023/12/23 08:09:08;;;;;;;3.30;0.30;;;;;;;;;;5035790;28;20514;-83
2023/12/23 08:11:37;;;;;;;2.63;0.53;;;;;;;;;;5035805;28;20416;-83
2023/12/23 08:14:04;;;;;;;2.03;0.30;;;;;;;;;;5050741;28;20463;-83
2023/12/23 08:16:30;;;;;;;1.80;0.20;;;;;;;;;;5036110;28;20774;-83
2023/12/23 08:18:56;;;;;;;1.43;0.33;;;;;;;;;;5035777;28;20405;-82
2023/12/23 08:21:21;;;;;;;1.00;0.30;;;;;;;;;;5035573;28;20466;-83
2023/12/23 08:23:47;;;;;;;1.70;0.40;;;;;;;;;;5035381;28;20414;-83
2023/12/23 08:26:13;;;;;;;2.90;0.60;;;;;;;;;;5004736;28;20998;-83
2023/12/23 08:28:39;;;;;;;1.47;0.30;;;;;;;;;;5024255;28;20528;-83
2023/12/23 08:31:05;;;;;;;2.40;0.50;;;;;;;;;;5035429;28;20441;-82
2023/12/23 08:33:33;;;;;;;1.10;0.57;;;;;;;;;;5035229;28;20499;-82
2023/12/23 08:35:59;;;;;;;1.53;0.87;;;;;;;;;;5035266;28;20420;-82
2023/12/23 08:38:25;;;;;;;4.07;0.53;;;;;;;;;;5035304;28;20469;-82
2023/12/23 08:40:51;;;;;;;2.50;0.80;;;;;;;;;;5050539;28;20421;-83
2023/12/23 08:43:17;;;;;;;1.83;0.50;;;;;;;;;;5034930;28;20451;-83
2023/12/23 08:45:43;;;;;;;1.90;0.50;;;;;;;;;;5035012;28;20423;-83
2023/12/23 08:48:09;;;;;;;2.23;0.70;;;;;;;;;;5035135;28;20488;-83
2023/12/23 08:50:38;;;;;;;1.80;0.77;;;;;;;;;;5035112;28;21017;-84
2023/12/23 08:53:04;;;;;;;2.37;0.83;;;;;;;;;;5034835;28;20505;-83
2023/12/23 08:55:30;;;;;;;3.23;0.67;;;;;;;;;;5034850;28;20475;-82
2023/12/23 08:57:56;;;;;;;2.30;0.73;;;;;;;;;;5034603;28;20900;-82
2023/12/23 09:00:22;;;;;;;1.37;0.50;;;;;;;;;;5034652;28;20413;-82
2023/12/23 09:02:48;;;;;;;2.17;0.23;;;;;;;;;;5049914;28;20443;-83
2023/12/23 09:05:14;;;;;;;3.97;0.70;;;;;;;;;;5050147;28;20888;-83
2023/12/23 09:07:40;;;;;;;2.80;0.50;;;;;;;;;;5034477;28;20910;-82
2023/12/23 09:10:09;;;;;;;1.20;0.73;;;;;;;;;;5034634;28;20249;-82
2023/12/23 09:12:35;;;;;;;2.73;0.77;;;;;;;;;;5034194;28;20527;-81
2023/12/23 09:15:01;;;;;;;3.63;1.00;;;;;;;;;;5034642;28;20424;-81
2023/12/23 09:17:27;;;;;;;5.83;1.97;;;;;;;;;;5034610;28;20421;-82
2023/12/23 09:19:53;;;;;;;3.43;1.73;;;;;;;;;;5049984;28;20418;-83
2023/12/23 09:22:19;;;;;;;1.93;0.60;;;;;;;;;;5049853;28;20419;-83
2023/12/23 09:24:45;;;;;;;3.10;1.07;;;;;;;;;;5034417;28;20499;-81
2023/12/23 09:27:11;;;;;;;2.23;1.23;;;;;;;;;;4992756;28;20425;-81
2023/12/23 09:29:37;;;;;;;1.90;0.67;;;;;;;;;;5034224;28;20475;-81
2023/12/23 09:32:03;;;;;;;2.00;0.93;;;;;;;;;;5034197;28;20437;-80
2023/12/23 09:34:29;;;;;;;4.13;1.57;;;;;;;;;;5034057;28;20502;-81
2023/12/23 09:36:55;;;;;;;6.23;1.43;;;;;;;;;;5049413;28;20445;-80
2023/12/23 09:39:21;;;;;;;2.00;0.93;;;;;;;;;;5034031;28;20501;-82
2023/12/23 09:41:47;;;;;;;1.27;0.70;;;;;;;;;;5033535;28;20443;-81
2023/12/23 09:44:13;;;;;;;1.53;0.80;;;;;;;;;;5034030;28;20456;-81
2023/12/23 09:46:39;;;;;;;4.03;1.00;;;;;;;;;;5033919;28;20409;-81
2023/12/23 09:49:05;;;;;;;2.50;0.87;;;;;;;;;;5049031;28;20798;-81
2023/12/23 09:51:31;;;;;;;3.10;1.13;;;;;;;;;;5033774;28;20452;-82
2023/12/23 09:53:58;;;;;;;5.90;1.60;;;;;;;;;;5033923;28;20409;-83
2023/12/23 09:56:25;;;;;;;5.33;1.90;;;;;;;;;;5033770;28;20404;-83
2023/12/23 09:58:51;;;;;;;5.50;2.33;;;;;;;;;;5033016;28;20451;-83
2023/12/23 10:01:17;;;;;;;3.53;1.33;;;;;;;;;;5049114;28;20416;-83
2023/12/23 10:03:43;;;;;;;4.40;1.67;;;;;;;;;;5033713;28;20421;-83
2023/12/23 10:06:13;;;;;;;6.30;1.87;;;;;;;;;;5033647;28;20775;-85
2023/12/23 10:08:39;;;;;;;3.40;2.40;;;;;;;;;;5033432;28;20916;-82
2023/12/23 10:11:05;;;;;;;4.70;2.53;;;;;;;;;;5033672;28;20507;-84
2023/12/23 10:13:31;;;;;;;4.20;1.43;;;;;;;;;;5033463;28;20500;-87
2023/12/23 10:15:57;;;;;;;3.97;1.30;;;;;;;;;;5033620;28;20885;-82
2023/12/23 10:18:23;;;;;;;4.37;2.13;;;;;;;;;;5033593;28;20417;-83
2023/12/23 10:20:49;;;;;;;3.00;1.20;;;;;;;;;;5033355;28;20561;-83
2023/12/23 10:23:14;;;;;;;5.20;1.17;;;;;;;;;;5032952;28;20539;-82
2023/12/23 10:25:40;;;;;;;3.43;1.67;;;;;;;;;;5033293;28;20496;-82
2023/12/23 10:28:08;;;;;;;3.10;1.67;;;;;;;;;;4992617;28;20428;-83
2023/12/23 10:30:39;;;;;;;3.07;1.50;;;;;;;;;;5033142;28;20476;-82
2023/12/23 10:33:06;;;;;;;5.60;1.83;;;;;;;;;;5033205;28;20441;-83
2023/12/23 10:35:40;;;;;;;5.03;2.80;;;;;;;;;;5033044;28;20492;-83
2023/12/23 10:38:09;;;;;;;6.40;1.90;;;;;;;;;;5033257;28;20414;-83
2023/12/23 10:40:35;;;;;;;4.00;2.03;;;;;;;;;;5033000;28;20443;-83
2023/12/23 10:43:04;;;;;;;2.90;1.87;;;;;;;;;;5032304;28;20882;-82
2023/12/23 10:45:31;;;;;;;2.47;1.10;;;;;;;;;;5032995;28;20511;-83
2023/12/23 10:47:59;;;;;;;5.73;1.70;;;;;;;;;;5033040;28;20811;-81
2023/12/23 10:50:25;;;;;;;4.20;2.20;;;;;;;;;;5048285;28;20480;-82
2023/12/23 10:52:53;;;;;;;4.60;3.10;;;;;;;;;;5033018;28;20498;-82
2023/12/23 10:55:20;;;;;;;3.93;1.97;;;;;;;;;;5032930;28;20409;-83
2023/12/23 10:57:47;;;;;;;4.50;2.50;;;;;;;;;;5047629;28;20852;-83
2023/12/23 11:00:13;;;;;;;4.00;2.70;;;;;;;;;;5031778;28;20429;-83
2023/12/23 11:02:41;;;;;;;4.90;1.73;;;;;;;;;;5048291;28;20413;-83
2023/12/23 11:05:07;;;;;;;4.60;2.10;;;;;;;;;;5032820;28;20848;-83
2023/12/23 11:07:35;;;;;;;3.50;1.53;;;;;;;;;;5032755;28;20512;-82
2023/12/23 11:10:02;;;;;;;3.93;2.13;;;;;;;;;;5034110;28;20473;-82
2023/12/23 11:12:31;;;;;;;6.40;4.00;;;;;;;;;;5036529;28;20781;-85
2023/12/23 11:15:00;;;;;;;6.53;3.83;;;;;;;;;;5036710;28;20436;-82
2023/12/23 11:17:27;;;;;;;5.57;3.13;;;;;;;;;;5036648;28;20412;-82
2023/12/23 11:19:58;;;;;;;6.70;3.97;;;;;;;;;;5036561;28;20492;-82
2023/12/23 11:22:44;;;;;;;9.03;4.00;;;;;;;;;;5036458;28;20549;-81
2023/12/23 11:25:35;;;;;;;6.33;3.77;;;;;;;;;;5036394;28;20417;-81
2023/12/23 11:28:08;;;;;;;6.07;3.53;;;;;;;;;;5036120;28;20416;-82
2023/12/23 11:30:38;;;;;;;5.53;3.60;;;;;;;;;;5007087;28;20475;-81
2023/12/23 11:33:04;;;;;;;6.07;3.40;;;;;;;;;;5028794;28;20425;-82
2023/12/23 11:35:30;;;;;;;7.63;3.90;;;;;;;;;;5035889;28;20470;-82
2023/12/23 11:37:57;;;;;;;6.10;3.60;;;;;;;;;;5035926;28;20565;-82
2023/12/23 11:40:23;;;;;;;6.63;3.27;;;;;;;;;;5051468;28;20441;-81
2023/12/23 11:42:49;;;;;;;5.90;3.13;;;;;;;;;;5036028;28;20404;-82
2023/12/23 11:45:15;;;;;;;5.00;2.93;;;;;;;;;;5051612;28;20421;-81
2023/12/23 11:47:42;;;;;;;5.30;3.10;;;;;;;;;;5036274;28;20511;-82
2023/12/23 11:50:08;;;;;;;5.93;2.63;;;;;;;;;;5036131;28;20530;-81
2023/12/23 11:52:35;;;;;;;5.47;2.87;;;;;;;;;;5036210;28;20412;-80
2023/12/23 11:55:04;;;;;;;3.73;2.37;;;;;;;;;;5035967;28;20448;-83
2023/12/23 11:57:30;;;;;;;3.40;1.50;;;;;;;;;;5051088;28;20781;-80
2023/12/23 11:59:56;;;;;;;5.20;2.83;;;;;;;;;;5051372;28;20426;-80
2023/12/23 12:02:22;;;;;;;8.33;2.40;;;;;;;;;;5035852;28;20440;-80
2023/12/23 12:04:48;;;;;;;3.57;1.97;;;;;;;;;;5035873;28;20448;-78
2023/12/23 12:07:14;;;;;;;6.37;3.70;;;;;;;;;;5035738;28;20411;-79
2023/12/23 12:09:40;;;;;;;8.80;3.10;;;;;;;;;;5035689;28;20477;-77
2023/12/23 12:12:07;;;;;;;7.13;3.07;;;;;;;;;;5034960;28;20428;-78
2023/12/23 12:14:32;;;;;;;5.77;2.70;;;;;;;;;;5035062;28;20412;-78
2023/12/23 12:16:58;;;;;;;7.80;4.00;;;;;;;;;;5034938;28;20912;-78
2023/12/23 12:19:24;;;;;;;4.10;2.87;;;;;;;;;;5035152;28;20407;-78
2023/12/23 12:21:50;;;;;;;5.70;2.73;;;;;;;;;;5035069;28;20420;-78
2023/12/23 12:24:17;;;;;;;5.80;3.60;;;;;;;;;;5035218;28;20444;-78
2023/12/23 12:26:44;;;;;;;5.83;2.53;;;;;;;;;;5034978;28;20480;-78
2023/12/23 12:29:10;;;;;;;7.87;3.07;;;;;;;;;;5035234;28;20813;-78
2023/12/23 12:31:37;;;;;;;4.70;2.50;;;;;;;;;;5035324;28;20415;-77
2023/12/23 12:34:03;;;;;;;11.83;2.00;;;;;;;;;;5035107;28;20458;-78
2023/12/23 12:36:29;;;;;;;5.30;1.50;;;;;;;;;;5035338;28;20960;-78
2023/12/23 12:38:54;;;;;;;9.17;1.03;;;;;;;;;;5035333;28;20414;-78
2023/12/23 12:41:20;;;;;;;3.30;1.43;;;;;;;;;;5034948;28;20420;-78
2023/12/23 12:43:46;;;;;;;2.33;1.10;;;;;;;;;;5035185;28;20438;-78
2023/12/23 12:46:16;;;;;;;2.87;1.00;;;;;;;;;;5035175;28;20916;-78
2023/12/23 12:48:43;;;;;;;2.50;0.60;;;;;;;;;;5034962;28;20459;-78
2023/12/23 12:51:09;;;;;;;6.60;1.10;;;;;;;;;;5035086;28;20406;-78
2023/12/23 12:53:37;;;;;;;7.03;1.03;;;;;;;;;;5035053;28;20409;-77
2023/12/23 12:56:09;;;;;;;3.63;0.90;;;;;;;;;;5034544;28;20411;-78
2023/12/23 12:58:35;;;;;;;2.40;0.33;;;;;;;;;;5034908;28;20817;-78
2023/12/23 13:01:02;;;;;;;2.70;0.80;;;;;;;;;;5034915;28;20492;-78
2023/12/23 13:03:28;;;;;;;1.57;0.40;;;;;;;;;;5034698;28;20409;-77
2023/12/23 13:05:54;;;;;;;1.30;0.80;;;;;;;;;;5034764;28;20406;-78
2023/12/23 13:08:20;;;;;;;3.50;0.90;;;;;;;;;;5034609;28;20421;-78
2023/12/23 13:10:46;;;;;;;2.10;0.80;;;;;;;;;;5034596;28;20468;-79
2023/12/23 13:13:12;;;;;;;4.33;0.80;;;;;;;;;;5034311;28;20775;-78
2023/12/23 13:15:38;;;;;;;2.53;0.53;;;;;;;;;;5034629;28;20414;-77
2023/12/23 13:18:04;;;;;;;1.17;0.20;;;;;;;;;;5034505;28;20993;-78
2023/12/23 13:20:30;;;;;;;1.43;0.40;;;;;;;;;;5034504;28;20770;-78
2023/12/23 13:22:56;;;;;;;0.93;0.20;;;;;;;;;;5034530;28;20410;-79
2023/12/23 13:25:22;;;;;;;3.00;0.50;;;;;;;;;;5049820;28;20425;-79
2023/12/23 13:27:48;;;;;;;1.90;0.30;;;;;;;;;;5034079;28;20422;-78
2023/12/23 13:30:14;;;;;;;1.47;0.30;;;;;;;;;;5034233;28;20472;-79
2023/12/23 13:32:40;;;;;;;1.03;0.43;;;;;;;;;;5033498;28;20877;-79
2023/12/23 13:35:06;;;;;;;1.27;0.20;;;;;;;;;;5034112;28;20823;-78
2023/12/23 13:37:32;;;;;;;3.27;0.70;;;;;;;;;;5033968;28;20418;-78
2023/12/23 13:39:58;;;;;;;1.20;0.30;;;;;;;;;;5034093;28;20420;-78
2023/12/23 13:42:24;;;;;;;3.03;0.60;;;;;;;;;;5033834;28;20411;-78
2023/12/23 13:44:50;;;;;;;1.07;0.20;;;;;;;;;;5034083;28;20777;-78
2023/12/23 13:47:16;;;;;;;1.43;0.20;;;;;;;;;;5034028;28;20405;-79
2023/12/23 13:49:42;;;;;;;2.60;0.40;;;;;;;;;;5034028;28;21014;-78
2023/12/23 13:52:08;;;;;;;0.57;0.20;;;;;;;;;;5034272;28;20436;-79
2023/12/23 13:54:34;;;;;;;1.13;0.30;;;;;;;;;;5034357;28;20413;-78
2023/12/23 13:57:00;;;;;;;0.70;0.20;;;;;;;;;;5033876;28;20416;-78
2023/12/23 13:59:26;;;;;;;2.50;0.23;;;;;;;;;;5034302;28;20418;-77
2023/12/23 14:01:52;;;;;;;1.30;0.30;;;;;;;;;;5034001;28;20457;-78
2023/12/23 14:04:19;;;;;;;0.57;0.30;;;;;;;;;;5034051;28;20415;-79
2023/12/23 14:06:45;;;;;;;2.53;0.30;;;;;;;;;;5033794;28;20497;-78
2023/12/23 14:09:11;;;;;;;2.63;0.30;;;;;;;;;;5033828;28;20871;-80
2023/12/23 14:11:37;;;;;;;1.90;0.20;;;;;;;;;;5033532;28;20405;-78
2023/12/23 14:14:03;;;;;;;1.40;0.20;;;;;;;;;;5033573;28;20414;-78
2023/12/23 14:16:30;;;;;;;3.83;0.30;;;;;;;;;;5033542;28;20458;-77
2023/12/23 14:18:56;;;;;;;1.80;0.40;;;;;;;;;;5033566;28;20410;-78
2023/12/23 14:21:22;;;;;;;1.30;0.53;;;;;;;;;;5033424;28;20410;-78
2023/12/23 14:23:48;;;;;;;3.13;0.37;;;;;;;;;;5048686;28;20418;-78
2023/12/23 14:26:14;;;;;;;4.50;0.80;;;;;;;;;;5048284;28;20422;-78
2023/12/23 14:28:40;;;;;;;1.70;0.70;;;;;;;;;;5033189;28;20452;-78
2023/12/23 14:31:06;;;;;;;1.83;0.53;;;;;;;;;;5048624;28;20483;-79
2023/12/23 14:33:32;;;;;;;1.53;0.43;;;;;;;;;;5033104;28;20462;-77
2023/12/23 14:35:59;;;;;;;0.53;0.30;;;;;;;;;;5033169;28;20409;-79
2023/12/23 14:38:26;;;;;;;1.70;0.60;;;;;;;;;;5033141;28;20421;-78